Accueil
METAR-TAF:

METAR-TAF

Aéroports :

Aéroport de Burgos

Burgos, Espagne

latitude: 42-22N, longitude: 003-38W, altitude: 894 m

Observation

Le bulletin a été fait il y a 22 minutes, à 16:00 UTC
Vent 11 kt de nord/nord-ouest
Température 4°C
Humidité 75%
Pression 1021 hPa
Visibilité 10 km ou plus
Nuages épars à une hauteur de 2200 ft

METAR: LEBG 211600Z 34011KT 9999 SCT022 04/M00 Q1021

Heure: 17:22 (16:22 UTC)

Prévision

Le bulletin a été fait il y a 2 heures et 22 minutes, à 14:00 UTC
Prévision valable du 21 à 15 UTC au 21 à 24 UTC
Vent 13 kt de nord
Visibilité 10 km ou plus
Quelques nuages à une hauteur de 2000 ft
Nuages fragmentés à une hauteur de 3000 ft
Probabilité 30% :
Temporairement
du 21 à 21 UTC au 21 à 24 UTC
Visibilité: 3500 m
Nuages fragmentés à une hauteur de 800 ft
brume

TAF: LEBG 211400Z 2115/2124 36013KT 9999 FEW020 BKN030 PROB30 TEMPO 2121/2124 3500 BR BKN008

Observations et prévisions météorologiques de plus de 4000 aéroports (messages METAR et TAF).

Les stations disponibles sont représentées par des disques jaunes et rouges sur la carte.

Passer la souris dessus pour voir le nom de la station.

Cliquer dessus pour voir les observations et prévisions météorologiques.

Pour changer de carte: cliquez sur les boutons verts avec une croix noire pour zoomer, sur le bouton vert avec un tiret pour effectuer un zoom arrière, ou sur les flèches vertes pour les cartes adjacentes.


METAR-TAF: